sensor_id;sensor_type;location;lat;lon;timestamp;noise_LAeq;noise_LA_min;noise_LA_max;noise_LA01;noise_LA95
72805;Laerm;60920;48.748;19.142;2023-06-04T00:00:55;31.34;29.80;33.44;;
72805;Laerm;60920;48.748;19.142;2023-06-04T00:03:22;31.34;29.83;33.70;;
72805;Laerm;60920;48.748;19.142;2023-06-04T00:05:48;31.27;29.67;33.26;;
72805;Laerm;60920;48.748;19.142;2023-06-04T00:08:13;31.35;29.97;44.87;;
72805;Laerm;60920;48.748;19.142;2023-06-04T00:10:38;31.29;30.01;33.11;;
72805;Laerm;60920;48.748;19.142;2023-06-04T00:13:05;31.32;29.96;32.64;;
72805;Laerm;60920;48.748;19.142;2023-06-04T00:15:30;31.38;29.95;32.83;;
72805;Laerm;60920;48.748;19.142;2023-06-04T00:17:55;31.37;29.99;33.70;;
72805;Laerm;60920;48.748;19.142;2023-06-04T00:20:21;31.37;29.91;32.77;;
72805;Laerm;60920;48.748;19.142;2023-06-04T00:22:47;31.38;29.95;32.71;;
72805;Laerm;60920;48.748;19.142;2023-06-04T00:25:12;31.43;30.13;33.05;;
72805;Laerm;60920;48.748;19.142;2023-06-04T00:27:37;31.68;29.92;33.99;;
72805;Laerm;60920;48.748;19.142;2023-06-04T00:30:03;31.46;29.96;33.32;;
72805;Laerm;60920;48.748;19.142;2023-06-04T00:32:29;31.35;30.03;32.95;;
72805;Laerm;60920;48.748;19.142;2023-06-04T00:34:54;31.59;30.07;34.20;;
72805;Laerm;60920;48.748;19.142;2023-06-04T00:37:23;31.63;30.04;35.72;;
72805;Laerm;60920;48.748;19.142;2023-06-04T00:39:48;31.47;30.04;33.54;;
72805;Laerm;60920;48.748;19.142;2023-06-04T00:42:13;31.42;29.95;32.75;;
72805;Laerm;60920;48.748;19.142;2023-06-04T00:44:39;31.42;30.10;33.32;;
72805;Laerm;60920;48.748;19.142;2023-06-04T00:47:13;31.43;30.20;32.93;;
72805;Laerm;60920;48.748;19.142;2023-06-04T00:49:38;31.53;30.21;33.14;;
72805;Laerm;60920;48.748;19.142;2023-06-04T00:52:04;31.44;30.08;33.81;;
72805;Laerm;60920;48.748;19.142;2023-06-04T00:54:30;31.42;30.23;32.81;;
72805;Laerm;60920;48.748;19.142;2023-06-04T00:56:57;31.52;30.06;34.21;;
72805;Laerm;60920;48.748;19.142;2023-06-04T00:59:23;31.45;30.18;32.98;;
72805;Laerm;60920;48.748;19.142;2023-06-04T01:07:00;31.54;30.11;33.18;;
72805;Laerm;60920;48.748;19.142;2023-06-04T01:09:27;31.44;30.11;32.65;;
72805;Laerm;60920;48.748;19.142;2023-06-04T01:11:53;31.54;29.61;33.36;;
72805;Laerm;60920;48.748;19.142;2023-06-04T01:14:19;31.56;30.07;38.57;;
72805;Laerm;60920;48.748;19.142;2023-06-04T01:17:01;31.43;29.96;32.77;;
72805;Laerm;60920;48.748;19.142;2023-06-04T01:22:02;31.47;30.16;32.78;;
72805;Laerm;60920;48.748;19.142;2023-06-04T01:24:29;31.63;30.31;33.38;;
72805;Laerm;60920;48.748;19.142;2023-06-04T01:26:59;31.50;30.14;32.86;;
72805;Laerm;60920;48.748;19.142;2023-06-04T01:29:25;31.67;30.03;36.31;;
72805;Laerm;60920;48.748;19.142;2023-06-04T01:31:55;31.50;30.09;34.07;;
72805;Laerm;60920;48.748;19.142;2023-06-04T01:34:21;31.62;30.15;33.44;;
72805;Laerm;60920;48.748;19.142;2023-06-04T01:36:46;31.61;30.21;33.92;;
72805;Laerm;60920;48.748;19.142;2023-06-04T01:39:12;31.58;30.06;33.08;;
72805;Laerm;60920;48.748;19.142;2023-06-04T01:41:37;31.95;30.34;43.02;;
72805;Laerm;60920;48.748;19.142;2023-06-04T01:44:03;34.25;30.40;48.34;;
72805;Laerm;60920;48.748;19.142;2023-06-04T01:46:28;33.55;29.99;46.93;;
72805;Laerm;60920;48.748;19.142;2023-06-04T01:48:53;32.08;30.34;38.14;;
72805;Laerm;60920;48.748;19.142;2023-06-04T01:51:19;33.14;30.70;43.54;;
72805;Laerm;60920;48.748;19.142;2023-06-04T01:53:45;34.00;30.71;46.54;;
72805;Laerm;60920;48.748;19.142;2023-06-04T01:56:10;33.43;30.45;45.96;;
72805;Laerm;60920;48.748;19.142;2023-06-04T01:58:36;32.99;30.68;41.73;;
72805;Laerm;60920;48.748;19.142;2023-06-04T02:01:02;32.78;30.45;39.58;;
72805;Laerm;60920;48.748;19.142;2023-06-04T02:03:29;32.08;30.41;38.59;;
72805;Laerm;60920;48.748;19.142;2023-06-04T02:06:02;33.89;30.61;51.99;;
72805;Laerm;60920;48.748;19.142;2023-06-04T02:08:27;32.11;30.59;39.66;;
72805;Laerm;60920;48.748;19.142;2023-06-04T02:10:55;32.64;30.55;45.98;;
72805;Laerm;60920;48.748;19.142;2023-06-04T02:13:20;32.10;30.33;38.16;;
72805;Laerm;60920;48.748;19.142;2023-06-04T02:15:46;32.08;30.50;37.58;;
72805;Laerm;60920;48.748;19.142;2023-06-04T02:18:15;32.60;30.48;41.62;;
72805;Laerm;60920;48.748;19.142;2023-06-04T02:20:42;32.62;30.62;38.29;;
72805;Laerm;60920;48.748;19.142;2023-06-04T02:23:07;32.24;30.05;37.55;;
72805;Laerm;60920;48.748;19.142;2023-06-04T02:25:33;32.54;30.25;42.05;;
72805;Laerm;60920;48.748;19.142;2023-06-04T02:27:58;33.16;30.59;47.96;;
72805;Laerm;60920;48.748;19.142;2023-06-04T02:30:23;32.01;30.25;37.21;;
72805;Laerm;60920;48.748;19.142;2023-06-04T02:32:49;31.88;30.53;36.55;;
72805;Laerm;60920;48.748;19.142;2023-06-04T02:35:16;31.80;30.47;33.78;;
72805;Laerm;60920;48.748;19.142;2023-06-04T02:37:42;31.93;30.49;37.32;;
72805;Laerm;60920;48.748;19.142;2023-06-04T02:40:08;32.01;30.49;43.05;;
72805;Laerm;60920;48.748;19.142;2023-06-04T02:42:33;33.63;30.14;48.61;;
72805;Laerm;60920;48.748;19.142;2023-06-04T02:44:58;33.32;30.27;47.14;;
72805;Laerm;60920;48.748;19.142;2023-06-04T02:47:24;31.82;30.35;34.51;;
72805;Laerm;60920;48.748;19.142;2023-06-04T02:49:49;31.81;30.36;33.86;;
72805;Laerm;60920;48.748;19.142;2023-06-04T02:52:15;31.77;30.35;33.64;;
72805;Laerm;60920;48.748;19.142;2023-06-04T02:54:40;31.74;30.32;33.48;;
72805;Laerm;60920;48.748;19.142;2023-06-04T02:57:06;31.79;30.23;33.43;;
72805;Laerm;60920;48.748;19.142;2023-06-04T02:59:32;31.96;30.54;36.50;;
72805;Laerm;60920;48.748;19.142;2023-06-04T03:01:57;31.83;30.50;33.73;;
72805;Laerm;60920;48.748;19.142;2023-06-04T03:04:22;31.88;30.41;33.44;;
72805;Laerm;60920;48.748;19.142;2023-06-04T03:06:48;31.95;30.14;33.68;;
72805;Laerm;60920;48.748;19.142;2023-06-04T03:09:13;31.95;30.53;35.07;;
72805;Laerm;60920;48.748;19.142;2023-06-04T03:11:38;31.86;30.51;34.77;;
72805;Laerm;60920;48.748;19.142;2023-06-04T03:14:04;32.18;30.64;35.93;;
72805;Laerm;60920;48.748;19.142;2023-06-04T03:16:29;32.12;30.60;35.23;;
72805;Laerm;60920;48.748;19.142;2023-06-04T03:18:55;31.94;30.61;34.18;;
72805;Laerm;60920;48.748;19.142;2023-06-04T03:21:21;31.93;30.38;34.20;;
72805;Laerm;60920;48.748;19.142;2023-06-04T03:23:46;31.94;30.62;33.44;;
72805;Laerm;60920;48.748;19.142;2023-06-04T03:26:12;31.78;30.46;34.10;;
72805;Laerm;60920;48.748;19.142;2023-06-04T03:28:38;31.89;30.50;34.42;;
72805;Laerm;60920;48.748;19.142;2023-06-04T03:31:03;32.12;30.59;34.37;;
72805;Laerm;60920;48.748;19.142;2023-06-04T03:33:28;31.94;30.51;34.22;;
72805;Laerm;60920;48.748;19.142;2023-06-04T03:35:54;31.88;30.14;33.44;;
72805;Laerm;60920;48.748;19.142;2023-06-04T03:38:22;32.05;30.41;34.18;;
72805;Laerm;60920;48.748;19.142;2023-06-04T03:40:48;32.04;30.58;33.53;;
72805;Laerm;60920;48.748;19.142;2023-06-04T03:43:13;31.95;30.44;34.84;;
72805;Laerm;60920;48.748;19.142;2023-06-04T03:45:39;32.09;30.62;33.69;;
72805;Laerm;60920;48.748;19.142;2023-06-04T03:48:04;31.90;30.66;33.26;;
72805;Laerm;60920;48.748;19.142;2023-06-04T03:50:30;31.98;30.56;34.16;;
72805;Laerm;60920;48.748;19.142;2023-06-04T03:52:56;32.11;30.78;35.72;;
72805;Laerm;60920;48.748;19.142;2023-06-04T03:55:21;32.78;30.62;45.21;;
72805;Laerm;60920;48.748;19.142;2023-06-04T03:57:46;32.44;30.64;39.37;;
72805;Laerm;60920;48.748;19.142;2023-06-04T04:00:12;32.00;30.53;36.04;;
72805;Laerm;60920;48.748;19.142;2023-06-04T04:02:41;31.98;30.29;33.84;;
72805;Laerm;60920;48.748;19.142;2023-06-04T04:05:07;32.04;30.40;34.09;;
72805;Laerm;60920;48.748;19.142;2023-06-04T04:07:32;32.00;30.75;33.53;;
72805;Laerm;60920;48.748;19.142;2023-06-04T04:09:58;32.38;30.41;40.83;;
72805;Laerm;60920;48.748;19.142;2023-06-04T04:12:23;32.15;30.41;36.94;;
72805;Laerm;60920;48.748;19.142;2023-06-04T04:14:48;32.15;30.59;36.50;;
72805;Laerm;60920;48.748;19.142;2023-06-04T04:17:14;32.18;30.65;36.46;;
72805;Laerm;60920;48.748;19.142;2023-06-04T04:19:40;32.19;30.64;40.02;;
72805;Laerm;60920;48.748;19.142;2023-06-04T04:22:05;32.13;30.85;33.95;;
72805;Laerm;60920;48.748;19.142;2023-06-04T04:24:31;32.07;30.70;33.81;;
72805;Laerm;60920;48.748;19.142;2023-06-04T04:26:59;32.16;30.33;34.16;;
72805;Laerm;60920;48.748;19.142;2023-06-04T04:29:24;32.13;30.83;35.11;;
72805;Laerm;60920;48.748;19.142;2023-06-04T04:31:50;32.25;30.80;34.88;;
72805;Laerm;60920;48.748;19.142;2023-06-04T04:34:16;32.12;30.60;34.15;;
72805;Laerm;60920;48.748;19.142;2023-06-04T04:36:42;32.17;30.68;34.51;;
72805;Laerm;60920;48.748;19.142;2023-06-04T04:39:07;32.12;30.70;33.92;;
72805;Laerm;60920;48.748;19.142;2023-06-04T04:41:33;32.14;30.72;34.09;;
72805;Laerm;60920;48.748;19.142;2023-06-04T04:44:04;32.18;30.72;35.81;;
72805;Laerm;60920;48.748;19.142;2023-06-04T04:46:30;32.11;30.80;34.10;;
72805;Laerm;60920;48.748;19.142;2023-06-04T04:48:55;32.21;30.85;36.69;;
72805;Laerm;60920;48.748;19.142;2023-06-04T04:51:21;32.14;30.82;33.88;;
72805;Laerm;60920;48.748;19.142;2023-06-04T04:53:47;32.10;30.64;33.54;;
72805;Laerm;60920;48.748;19.142;2023-06-04T04:56:12;32.04;30.82;33.50;;
72805;Laerm;60920;48.748;19.142;2023-06-04T04:58:37;32.16;30.43;38.48;;
72805;Laerm;60920;48.748;19.142;2023-06-04T05:01:03;32.08;30.74;33.59;;
72805;Laerm;60920;48.748;19.142;2023-06-04T05:03:28;32.09;30.70;33.73;;
72805;Laerm;60920;48.748;19.142;2023-06-04T05:05:54;32.18;30.71;34.82;;
72805;Laerm;60920;48.748;19.142;2023-06-04T05:08:19;32.22;30.87;37.12;;
72805;Laerm;60920;48.748;19.142;2023-06-04T05:10:45;32.16;30.68;33.78;;
72805;Laerm;60920;48.748;19.142;2023-06-04T05:13:10;32.13;30.75;33.62;;
72805;Laerm;60920;48.748;19.142;2023-06-04T05:15:36;32.21;30.53;38.06;;
72805;Laerm;60920;48.748;19.142;2023-06-04T05:18:02;32.16;30.53;36.03;;
72805;Laerm;60920;48.748;19.142;2023-06-04T05:20:28;32.09;30.57;40.64;;
72805;Laerm;60920;48.748;19.142;2023-06-04T05:22:54;32.17;30.84;33.89;;
72805;Laerm;60920;48.748;19.142;2023-06-04T05:25:20;32.04;30.69;33.58;;
72805;Laerm;60920;48.748;19.142;2023-06-04T05:27:45;32.17;30.77;34.31;;
72805;Laerm;60920;48.748;19.142;2023-06-04T05:30:14;32.53;30.66;39.90;;
72805;Laerm;60920;48.748;19.142;2023-06-04T05:32:39;32.73;30.67;42.60;;
72805;Laerm;60920;48.748;19.142;2023-06-04T05:35:05;32.78;30.70;41.62;;
72805;Laerm;60920;48.748;19.142;2023-06-04T05:37:32;32.73;30.52;39.72;;
72805;Laerm;60920;48.748;19.142;2023-06-04T05:39:59;32.66;30.56;41.01;;
72805;Laerm;60920;48.748;19.142;2023-06-04T05:42:24;32.17;30.63;36.08;;
72805;Laerm;60920;48.748;19.142;2023-06-04T05:44:50;32.21;30.62;36.01;;
72805;Laerm;60920;48.748;19.142;2023-06-04T05:47:17;32.16;30.68;35.80;;
72805;Laerm;60920;48.748;19.142;2023-06-04T05:49:43;32.42;30.51;35.88;;
72805;Laerm;60920;48.748;19.142;2023-06-04T05:52:08;32.24;30.63;36.21;;
72805;Laerm;60920;48.748;19.142;2023-06-04T05:54:34;32.23;30.69;34.24;;
72805;Laerm;60920;48.748;19.142;2023-06-04T05:56:59;32.15;30.53;35.33;;
72805;Laerm;60920;48.748;19.142;2023-06-04T05:59:25;32.09;30.58;38.92;;
72805;Laerm;60920;48.748;19.142;2023-06-04T06:01:50;31.89;30.20;36.31;;
72805;Laerm;60920;48.748;19.142;2023-06-04T06:04:15;32.22;30.41;43.62;;
72805;Laerm;60920;48.748;19.142;2023-06-04T06:06:41;32.17;30.58;34.06;;
72805;Laerm;60920;48.748;19.142;2023-06-04T06:09:09;32.24;30.65;39.79;;
72805;Laerm;60920;48.748;19.142;2023-06-04T06:11:35;32.23;30.67;37.49;;
72805;Laerm;60920;48.748;19.142;2023-06-04T06:14:00;32.15;30.53;35.92;;
72805;Laerm;60920;48.748;19.142;2023-06-04T06:16:26;32.13;30.14;34.20;;
72805;Laerm;60920;48.748;19.142;2023-06-04T06:18:52;31.84;30.22;34.89;;
72805;Laerm;60920;48.748;19.142;2023-06-04T06:21:17;31.97;30.11;34.75;;
72805;Laerm;60920;48.748;19.142;2023-06-04T06:23:43;32.23;30.53;36.95;;
72805;Laerm;60920;48.748;19.142;2023-06-04T06:26:08;32.13;30.48;33.98;;
72805;Laerm;60920;48.748;19.142;2023-06-04T06:28:34;32.17;30.58;42.04;;
72805;Laerm;60920;48.748;19.142;2023-06-04T06:31:01;32.36;30.37;47.91;;
72805;Laerm;60920;48.748;19.142;2023-06-04T06:33:26;32.55;30.34;41.84;;
72805;Laerm;60920;48.748;19.142;2023-06-04T06:35:52;32.77;30.24;44.35;;
72805;Laerm;60920;48.748;19.142;2023-06-04T06:38:17;32.25;30.50;37.57;;
72805;Laerm;60920;48.748;19.142;2023-06-04T06:40:42;32.46;30.14;41.84;;
72805;Laerm;60920;48.748;19.142;2023-06-04T06:43:08;32.32;30.44;38.02;;
72805;Laerm;60920;48.748;19.142;2023-06-04T06:45:35;32.61;30.73;40.69;;
72805;Laerm;60920;48.748;19.142;2023-06-04T06:48:00;32.24;30.73;35.32;;
72805;Laerm;60920;48.748;19.142;2023-06-04T06:50:26;32.27;30.50;35.66;;
72805;Laerm;60920;48.748;19.142;2023-06-04T06:52:51;32.20;30.52;36.65;;
72805;Laerm;60920;48.748;19.142;2023-06-04T06:55:16;32.20;30.41;34.27;;
72805;Laerm;60920;48.748;19.142;2023-06-04T06:57:42;32.23;30.44;34.22;;
72805;Laerm;60920;48.748;19.142;2023-06-04T07:00:08;32.51;30.30;43.17;;
72805;Laerm;60920;48.748;19.142;2023-06-04T07:02:33;31.88;30.00;39.14;;
72805;Laerm;60920;48.748;19.142;2023-06-04T07:04:59;32.20;29.80;40.17;;
72805;Laerm;60920;48.748;19.142;2023-06-04T07:07:24;32.20;30.24;39.07;;
72805;Laerm;60920;48.748;19.142;2023-06-04T07:09:49;31.71;29.79;37.42;;
72805;Laerm;60920;48.748;19.142;2023-06-04T07:12:15;31.76;29.56;34.64;;
72805;Laerm;60920;48.748;19.142;2023-06-04T07:14:40;33.02;29.72;46.49;;
72805;Laerm;60920;48.748;19.142;2023-06-04T07:17:06;31.19;29.38;41.44;;
72805;Laerm;60920;48.748;19.142;2023-06-04T07:19:31;31.84;29.76;42.44;;
72805;Laerm;60920;48.748;19.142;2023-06-04T07:21:56;31.24;29.21;36.15;;
72805;Laerm;60920;48.748;19.142;2023-06-04T07:24:22;31.33;29.47;38.50;;
72805;Laerm;60920;48.748;19.142;2023-06-04T07:26:47;31.56;29.56;39.69;;
72805;Laerm;60920;48.748;19.142;2023-06-04T07:29:13;31.52;29.46;34.62;;
72805;Laerm;60920;48.748;19.142;2023-06-04T07:31:38;31.32;28.99;42.76;;
72805;Laerm;60920;48.748;19.142;2023-06-04T07:34:03;31.46;29.62;35.62;;
72805;Laerm;60920;48.748;19.142;2023-06-04T07:36:29;31.70;29.65;37.69;;
72805;Laerm;60920;48.748;19.142;2023-06-04T07:38:56;31.95;29.47;37.90;;
72805;Laerm;60920;48.748;19.142;2023-06-04T07:41:21;31.99;29.72;35.06;;
72805;Laerm;60920;48.748;19.142;2023-06-04T07:43:46;31.46;29.22;34.45;;
72805;Laerm;60920;48.748;19.142;2023-06-04T07:46:12;31.67;29.23;36.15;;
72805;Laerm;60920;48.748;19.142;2023-06-04T07:48:38;31.82;29.18;42.31;;
72805;Laerm;60920;48.748;19.142;2023-06-04T07:51:03;32.75;29.11;45.49;;
72805;Laerm;60920;48.748;19.142;2023-06-04T07:53:29;32.01;28.97;47.93;;
72805;Laerm;60920;48.748;19.142;2023-06-04T07:55:55;31.99;28.99;44.53;;
72805;Laerm;60920;48.748;19.142;2023-06-04T07:58:21;31.35;28.88;37.47;;
72805;Laerm;60920;48.748;19.142;2023-06-04T08:00:47;31.36;29.27;38.20;;
72805;Laerm;60920;48.748;19.142;2023-06-04T08:03:12;31.55;29.47;39.97;;
72805;Laerm;60920;48.748;19.142;2023-06-04T08:05:37;31.32;28.58;44.33;;
72805;Laerm;60920;48.748;19.142;2023-06-04T08:08:03;31.56;29.00;45.65;;
72805;Laerm;60920;48.748;19.142;2023-06-04T08:10:31;30.88;27.95;41.55;;
72805;Laerm;60920;48.748;19.142;2023-06-04T08:12:57;32.30;29.45;50.06;;
72805;Laerm;60920;48.748;19.142;2023-06-04T08:15:22;31.18;28.60;40.55;;
72805;Laerm;60920;48.748;19.142;2023-06-04T08:17:48;31.16;28.52;41.97;;
72805;Laerm;60920;48.748;19.142;2023-06-04T08:20:13;31.30;28.46;40.18;;
72805;Laerm;60920;48.748;19.142;2023-06-04T08:22:38;30.44;28.60;38.98;;
72805;Laerm;60920;48.748;19.142;2023-06-04T08:25:04;33.30;28.14;46.03;;
72805;Laerm;60920;48.748;19.142;2023-06-04T08:27:30;32.68;28.78;49.95;;
72805;Laerm;60920;48.748;19.142;2023-06-04T08:29:56;31.40;28.54;42.24;;
72805;Laerm;60920;48.748;19.142;2023-06-04T08:32:21;31.83;28.95;43.22;;
72805;Laerm;60920;48.748;19.142;2023-06-04T08:34:46;31.71;28.28;44.30;;
72805;Laerm;60920;48.748;19.142;2023-06-04T08:37:12;31.52;29.17;38.82;;
72805;Laerm;60920;48.748;19.142;2023-06-04T08:39:37;31.18;28.36;38.83;;
72805;Laerm;60920;48.748;19.142;2023-06-04T08:42:06;31.49;28.23;38.79;;
72805;Laerm;60920;48.748;19.142;2023-06-04T08:44:34;31.00;28.52;33.92;;
72805;Laerm;60920;48.748;19.142;2023-06-04T08:47:03;31.20;28.60;42.43;;
72805;Laerm;60920;48.748;19.142;2023-06-04T08:49:32;31.16;28.39;49.39;;
72805;Laerm;60920;48.748;19.142;2023-06-04T08:51:59;31.56;28.62;40.72;;
72805;Laerm;60920;48.748;19.142;2023-06-04T08:54:24;31.59;28.96;37.67;;
72805;Laerm;60920;48.748;19.142;2023-06-04T08:56:50;31.32;28.13;41.37;;
72805;Laerm;60920;48.748;19.142;2023-06-04T08:59:17;31.66;29.06;35.96;;
72805;Laerm;60920;48.748;19.142;2023-06-04T09:01:43;31.48;28.23;40.54;;
72805;Laerm;60920;48.748;19.142;2023-06-04T09:04:10;31.35;28.40;38.49;;
72805;Laerm;60920;48.748;19.142;2023-06-04T09:06:35;31.61;28.96;39.32;;
72805;Laerm;60920;48.748;19.142;2023-06-04T09:09:03;31.99;28.77;39.15;;
72805;Laerm;60920;48.748;19.142;2023-06-04T09:11:33;31.36;28.43;38.88;;
72805;Laerm;60920;48.748;19.142;2023-06-04T09:13:59;31.27;28.58;38.09;;
72805;Laerm;60920;48.748;19.142;2023-06-04T09:16:26;31.64;28.57;39.02;;
72805;Laerm;60920;48.748;19.142;2023-06-04T09:18:52;32.12;28.67;41.28;;
72805;Laerm;60920;48.748;19.142;2023-06-04T09:21:18;31.92;28.29;49.14;;
72805;Laerm;60920;48.748;19.142;2023-06-04T09:23:45;31.47;27.51;41.23;;
72805;Laerm;60920;48.748;19.142;2023-06-04T09:26:11;33.26;28.36;44.76;;
72805;Laerm;60920;48.748;19.142;2023-06-04T09:28:43;30.80;27.89;40.09;;
72805;Laerm;60920;48.748;19.142;2023-06-04T09:31:09;30.96;27.92;36.68;;
72805;Laerm;60920;48.748;19.142;2023-06-04T09:33:48;31.16;27.94;35.85;;
72805;Laerm;60920;48.748;19.142;2023-06-04T09:36:14;31.31;28.27;38.07;;
72805;Laerm;60920;48.748;19.142;2023-06-04T09:38:40;32.50;28.70;44.98;;
72805;Laerm;60920;48.748;19.142;2023-06-04T09:41:12;32.65;28.99;46.44;;
72805;Laerm;60920;48.748;19.142;2023-06-04T09:43:38;30.89;27.96;35.75;;
72805;Laerm;60920;48.748;19.142;2023-06-04T09:48:36;31.33;27.82;39.88;;
72805;Laerm;60920;48.748;19.142;2023-06-04T09:51:08;32.37;28.98;39.92;;
72805;Laerm;60920;48.748;19.142;2023-06-04T09:53:33;31.34;28.57;47.27;;
72805;Laerm;60920;48.748;19.142;2023-06-04T09:55:59;30.79;28.52;39.20;;
72805;Laerm;60920;48.748;19.142;2023-06-04T09:58:26;32.33;29.09;40.55;;
72805;Laerm;60920;48.748;19.142;2023-06-04T10:00:52;31.70;28.09;38.63;;
72805;Laerm;60920;48.748;19.142;2023-06-04T10:03:18;31.43;27.74;39.83;;
72805;Laerm;60920;48.748;19.142;2023-06-04T10:05:48;31.15;28.49;38.17;;
72805;Laerm;60920;48.748;19.142;2023-06-04T10:08:14;30.46;27.44;39.47;;
72805;Laerm;60920;48.748;19.142;2023-06-04T10:10:42;30.09;27.37;36.57;;
72805;Laerm;60920;48.748;19.142;2023-06-04T10:13:17;30.12;27.84;32.94;;
72805;Laerm;60920;48.748;19.142;2023-06-04T10:15:42;30.86;28.11;36.04;;
72805;Laerm;60920;48.748;19.142;2023-06-04T10:18:08;30.92;28.28;38.68;;
72805;Laerm;60920;48.748;19.142;2023-06-04T10:20:35;31.70;28.24;38.12;;
72805;Laerm;60920;48.748;19.142;2023-06-04T10:23:01;31.61;28.56;38.56;;
72805;Laerm;60920;48.748;19.142;2023-06-04T10:25:27;30.68;27.77;36.36;;
72805;Laerm;60920;48.748;19.142;2023-06-04T10:27:53;30.44;27.80;36.38;;
72805;Laerm;60920;48.748;19.142;2023-06-04T10:30:18;31.10;28.33;37.97;;
72805;Laerm;60920;48.748;19.142;2023-06-04T10:32:43;30.78;28.21;35.74;;
72805;Laerm;60920;48.748;19.142;2023-06-04T10:35:09;31.06;28.48;36.41;;
72805;Laerm;60920;48.748;19.142;2023-06-04T10:37:34;30.83;28.02;39.08;;
72805;Laerm;60920;48.748;19.142;2023-06-04T10:40:01;30.76;27.91;39.48;;
72805;Laerm;60920;48.748;19.142;2023-06-04T10:42:37;30.89;28.16;35.99;;
72805;Laerm;60920;48.748;19.142;2023-06-04T10:45:02;30.95;27.56;40.97;;
72805;Laerm;60920;48.748;19.142;2023-06-04T10:47:28;31.14;27.98;37.28;;
72805;Laerm;60920;48.748;19.142;2023-06-04T10:50:09;31.08;28.04;43.04;;
72805;Laerm;60920;48.748;19.142;2023-06-04T10:52:35;31.83;28.57;44.15;;
72805;Laerm;60920;48.748;19.142;2023-06-04T10:55:04;31.95;28.13;38.74;;
72805;Laerm;60920;48.748;19.142;2023-06-04T10:57:30;30.43;27.73;35.40;;
72805;Laerm;60920;48.748;19.142;2023-06-04T10:59:57;31.10;28.03;36.40;;
72805;Laerm;60920;48.748;19.142;2023-06-04T11:02:23;31.41;27.89;39.11;;
72805;Laerm;60920;48.748;19.142;2023-06-04T11:07:43;31.20;28.55;40.83;;
72805;Laerm;60920;48.748;19.142;2023-06-04T11:10:10;31.01;28.41;37.49;;
72805;Laerm;60920;48.748;19.142;2023-06-04T11:12:45;30.58;27.10;37.20;;
72805;Laerm;60920;48.748;19.142;2023-06-04T11:15:11;31.34;27.66;40.66;;
72805;Laerm;60920;48.748;19.142;2023-06-04T11:17:37;31.56;27.84;41.39;;
72805;Laerm;60920;48.748;19.142;2023-06-04T11:20:02;31.98;28.54;42.19;;
72805;Laerm;60920;48.748;19.142;2023-06-04T11:22:30;31.89;28.16;36.49;;
72805;Laerm;60920;48.748;19.142;2023-06-04T11:24:56;31.71;28.82;43.88;;
72805;Laerm;60920;48.748;19.142;2023-06-04T11:27:22;31.48;28.36;35.65;;
72805;Laerm;60920;48.748;19.142;2023-06-04T11:29:53;30.54;27.58;35.68;;
72805;Laerm;60920;48.748;19.142;2023-06-04T11:32:22;32.03;28.70;37.54;;
72805;Laerm;60920;48.748;19.142;2023-06-04T11:34:48;31.66;28.96;37.19;;
72805;Laerm;60920;48.748;19.142;2023-06-04T11:37:13;30.64;28.05;35.28;;
72805;Laerm;60920;48.748;19.142;2023-06-04T11:39:39;32.12;27.37;41.21;;
72805;Laerm;60920;48.748;19.142;2023-06-04T11:42:05;30.78;27.98;36.10;;
72805;Laerm;60920;48.748;19.142;2023-06-04T11:44:32;31.10;27.96;35.68;;
72805;Laerm;60920;48.748;19.142;2023-06-04T11:46:57;31.99;28.78;40.45;;
72805;Laerm;60920;48.748;19.142;2023-06-04T11:49:23;32.40;28.75;43.37;;
72805;Laerm;60920;48.748;19.142;2023-06-04T11:51:49;31.86;29.00;39.77;;
72805;Laerm;60920;48.748;19.142;2023-06-04T11:54:18;32.25;28.19;43.58;;
72805;Laerm;60920;48.748;19.142;2023-06-04T11:56:44;32.27;28.41;47.03;;
72805;Laerm;60920;48.748;19.142;2023-06-04T11:59:13;32.59;29.07;38.29;;
72805;Laerm;60920;48.748;19.142;2023-06-04T12:01:42;32.40;28.61;40.69;;
72805;Laerm;60920;48.748;19.142;2023-06-04T12:04:17;32.05;28.74;46.52;;
72805;Laerm;60920;48.748;19.142;2023-06-04T12:09:21;31.23;28.28;44.83;;
72805;Laerm;60920;48.748;19.142;2023-06-04T12:11:47;31.62;28.49;36.84;;
72805;Laerm;60920;48.748;19.142;2023-06-04T12:14:15;31.56;28.82;43.38;;
72805;Laerm;60920;48.748;19.142;2023-06-04T12:16:41;34.97;27.12;66.06;;
72805;Laerm;60920;48.748;19.142;2023-06-04T12:21:32;31.21;27.80;34.60;;
72805;Laerm;60920;48.748;19.142;2023-06-04T12:24:05;31.78;28.01;37.36;;
72805;Laerm;60920;48.748;19.142;2023-06-04T12:26:31;31.70;28.32;55.95;;
72805;Laerm;60920;48.748;19.142;2023-06-04T12:28:58;34.15;28.03;46.52;;
72805;Laerm;60920;48.748;19.142;2023-06-04T12:31:24;31.29;28.20;38.92;;
72805;Laerm;60920;48.748;19.142;2023-06-04T12:33:49;35.31;28.71;47.61;;
72805;Laerm;60920;48.748;19.142;2023-06-04T12:36:14;32.94;29.42;42.36;;
72805;Laerm;60920;48.748;19.142;2023-06-04T12:38:40;31.88;28.81;35.35;;
72805;Laerm;60920;48.748;19.142;2023-06-04T12:41:06;31.16;28.13;34.96;;
72805;Laerm;60920;48.748;19.142;2023-06-04T12:43:31;31.09;27.59;36.79;;
72805;Laerm;60920;48.748;19.142;2023-06-04T12:45:59;32.25;28.40;45.35;;
72805;Laerm;60920;48.748;19.142;2023-06-04T12:48:24;33.51;29.49;45.28;;
72805;Laerm;60920;48.748;19.142;2023-06-04T12:50:50;31.42;28.48;38.53;;
72805;Laerm;60920;48.748;19.142;2023-06-04T12:53:15;31.36;28.22;37.87;;
72805;Laerm;60920;48.748;19.142;2023-06-04T12:55:40;31.55;28.56;36.39;;
72805;Laerm;60920;48.748;19.142;2023-06-04T12:58:06;32.24;29.12;35.68;;
72805;Laerm;60920;48.748;19.142;2023-06-04T13:00:31;31.98;28.80;39.84;;
72805;Laerm;60920;48.748;19.142;2023-06-04T13:02:56;33.89;28.97;48.88;;
72805;Laerm;60920;48.748;19.142;2023-06-04T13:05:22;33.12;28.16;46.94;;
72805;Laerm;60920;48.748;19.142;2023-06-04T13:07:47;31.78;28.50;42.15;;
72805;Laerm;60920;48.748;19.142;2023-06-04T13:10:12;31.80;28.85;46.93;;
72805;Laerm;60920;48.748;19.142;2023-06-04T13:12:38;31.77;28.60;42.77;;
72805;Laerm;60920;48.748;19.142;2023-06-04T13:15:03;32.01;28.16;41.11;;
72805;Laerm;60920;48.748;19.142;2023-06-04T13:17:29;31.83;28.53;43.55;;
72805;Laerm;60920;48.748;19.142;2023-06-04T13:19:55;32.31;28.25;43.80;;
72805;Laerm;60920;48.748;19.142;2023-06-04T13:22:20;32.35;28.20;49.79;;
72805;Laerm;60920;48.748;19.142;2023-06-04T13:24:45;33.38;29.05;49.67;;
72805;Laerm;60920;48.748;19.142;2023-06-04T13:27:10;33.94;29.25;48.09;;
72805;Laerm;60920;48.748;19.142;2023-06-04T13:29:36;33.17;28.85;47.14;;
72805;Laerm;60920;48.748;19.142;2023-06-04T13:32:01;32.03;28.66;47.30;;
72805;Laerm;60920;48.748;19.142;2023-06-04T13:34:26;32.83;28.64;46.46;;
72805;Laerm;60920;48.748;19.142;2023-06-04T13:36:52;31.83;28.73;39.65;;
72805;Laerm;60920;48.748;19.142;2023-06-04T13:39:17;32.87;28.95;55.30;;
72805;Laerm;60920;48.748;19.142;2023-06-04T13:41:42;33.79;28.95;48.06;;
72805;Laerm;60920;48.748;19.142;2023-06-04T13:44:08;33.12;29.37;46.87;;